Time;durP1;ratioP1;P1;durP2;ratioP2;P2;SDS_P1;SDS_P2;PMS_P1;PMS_P2;Temp;Humidity;BMP_temperature;BMP_pressure;BME280_temperature;BME280_humidity;BME280_pressure;Samples;Min_cycle;Max_cycle;Signal;HPM_P1;HPM_P2
2022/12/08 00:02:02;;;;;;;75.22;20.40;;;7.50;93.50;;;;;;5109197;28;20062;-55
2022/12/08 00:04:28;;;;;;;73.95;21.27;;;7.50;93.50;;;;;;5127663;28;20485;-55
2022/12/08 00:09:51;;;;;;;67.28;20.33;;;7.50;93.60;;;;;;5059415;28;20121;-55
2022/12/08 00:12:17;;;;;;;79.53;21.27;;;7.50;93.60;;;;;;5127507;28;20027;-55
2022/12/08 00:14:44;;;;;;;63.05;19.55;;;7.40;93.60;;;;;;5127396;28;20139;-55
2022/12/08 00:17:10;;;;;;;56.72;18.17;;;7.40;93.60;;;;;;5108850;28;20051;-55
2022/12/08 00:19:37;;;;;;;60.92;18.15;;;7.40;93.60;;;;;;5109051;28;20027;-55
2022/12/08 00:22:04;;;;;;;58.97;19.33;;;7.40;93.60;;;;;;5109188;28;20133;-55
2022/12/08 00:24:31;;;;;;;64.47;19.00;;;7.40;93.60;;;;;;5108801;28;20085;-55
2022/12/08 00:26:57;;;;;;;58.60;18.23;;;7.40;93.60;;;;;;5109451;28;20023;-54
2022/12/08 00:29:22;;;;;;;48.40;19.35;;;7.40;93.60;;;;;;5127012;28;20042;-55
2022/12/08 00:31:48;;;;;;;63.10;19.55;;;7.40;93.60;;;;;;5125555;28;20099;-54
2022/12/08 00:34:13;;;;;;;68.13;20.13;;;7.40;93.60;;;;;;5108559;28;20034;-55
2022/12/08 00:36:39;;;;;;;55.47;19.13;;;7.40;93.60;;;;;;5108149;28;20096;-55
2022/12/08 00:39:05;;;;;;;54.10;17.52;;;7.40;93.60;;;;;;5109209;28;20058;-55
2022/12/08 00:44:15;;;;;;;53.78;18.58;;;7.40;93.70;;;;;;5111161;28;20035;-55
2022/12/08 00:46:41;;;;;;;50.35;19.02;;;7.40;93.60;;;;;;5108553;28;20080;-55
2022/12/08 00:49:07;;;;;;;48.15;17.70;;;7.30;93.60;;;;;;5108237;28;20027;-55
2022/12/08 00:51:33;;;;;;;51.83;18.00;;;7.30;93.60;;;;;;5108271;28;20450;-54
2022/12/08 00:53:58;;;;;;;43.92;17.95;;;7.30;93.60;;;;;;5126728;28;20072;-55
2022/12/08 00:56:24;;;;;;;36.60;17.10;;;7.30;93.60;;;;;;5107547;28;20387;-55
2022/12/08 00:58:49;;;;;;;55.05;18.48;;;7.30;93.60;;;;;;5108185;28;20043;-55
2022/12/08 01:01:15;;;;;;;48.83;17.73;;;7.30;93.60;;;;;;5108218;28;20058;-55
2022/12/08 01:03:41;;;;;;;47.47;17.50;;;7.30;93.60;;;;;;5108541;28;20031;-55
2022/12/08 01:06:07;;;;;;;51.05;17.80;;;7.30;93.60;;;;;;5108098;28;20105;-54
2022/12/08 01:08:33;;;;;;;63.53;19.67;;;7.30;93.60;;;;;;5126458;28;20034;-55
2022/12/08 01:11:03;;;;;;;49.83;18.52;;;7.20;93.50;;;;;;5107820;28;20027;-55
2022/12/08 01:13:28;;;;;;;46.22;18.20;;;7.30;93.50;;;;;;5107658;28;20033;-55
2022/12/08 01:15:54;;;;;;;48.25;17.20;;;7.30;93.50;;;;;;5124546;28;20027;-54
2022/12/08 01:18:19;;;;;;;41.50;17.77;;;7.30;93.50;;;;;;5107833;28;20042;-55
2022/12/08 01:20:45;;;;;;;45.10;17.63;;;7.20;93.50;;;;;;5126149;28;20039;-55
2022/12/08 01:23:11;;;;;;;50.47;17.60;;;7.20;93.50;;;;;;5107749;28;20043;-55
2022/12/08 01:25:36;;;;;;;50.10;18.50;;;7.20;93.50;;;;;;5125990;28;20028;-55
2022/12/08 01:28:02;;;;;;;47.10;18.58;;;7.20;93.50;;;;;;5107415;28;20051;-54
2022/12/08 01:30:27;;;;;;;50.42;17.98;;;7.20;93.50;;;;;;5125962;28;20024;-55
2022/12/08 01:32:53;;;;;;;44.03;18.83;;;7.20;93.50;;;;;;5125945;28;20031;-55
2022/12/08 01:35:18;;;;;;;46.53;18.35;;;7.20;93.50;;;;;;5107436;28;20554;-55
2022/12/08 01:37:44;;;;;;;42.58;17.52;;;7.20;93.50;;;;;;5090396;28;20115;-54
2022/12/08 01:40:09;;;;;;;45.80;17.42;;;7.20;93.50;;;;;;5125793;28;20493;-54
2022/12/08 01:42:37;;;;;;;45.15;17.67;;;7.20;93.50;;;;;;5107396;28;20477;-55
2022/12/08 01:45:23;;;;;;;43.78;17.45;;;7.20;93.50;;;;;;5107582;28;20036;-54
2022/12/08 01:47:50;;;;;;;44.30;16.65;;;7.20;93.50;;;;;;5125876;28;20035;-55
2022/12/08 01:50:15;;;;;;;35.08;16.20;;;7.10;93.50;;;;;;5107135;28;20019;-55
2022/12/08 01:52:52;;;;;;;41.40;17.58;;;7.20;93.50;;;;;;5107170;28;20020;-55
2022/12/08 01:55:28;;;;;;;38.22;17.20;;;7.10;93.50;;;;;;5090221;28;20038;-54
2022/12/08 01:57:56;;;;;;;34.38;17.63;;;7.10;93.50;;;;;;5125518;28;20028;-55
2022/12/08 02:00:22;;;;;;;39.35;16.15;;;7.10;93.50;;;;;;5090127;28;20038;-55
2022/12/08 02:02:56;;;;;;;32.90;16.92;;;7.10;93.50;;;;;;5107214;28;20047;-55
2022/12/08 02:05:23;;;;;;;36.75;16.33;;;7.10;93.50;;;;;;5107264;28;20047;-54
2022/12/08 02:07:49;;;;;;;40.03;17.23;;;7.10;93.50;;;;;;5107077;28;20034;-54
2022/12/08 02:10:17;;;;;;;35.55;17.27;;;7.10;93.40;;;;;;5123868;28;20016;-55
2022/12/08 02:12:43;;;;;;;39.08;16.75;;;7.10;93.40;;;;;;5107272;28;20027;-55
2022/12/08 02:15:09;;;;;;;32.55;16.05;;;7.10;93.40;;;;;;5107545;28;20023;-55
2022/12/08 02:17:50;;;;;;;40.40;16.73;;;7.10;93.40;;;;;;5106856;28;20028;-54
2022/12/08 02:20:40;;;;;;;35.00;15.82;;;7.10;93.40;;;;;;5107052;28;20039;-55
2022/12/08 02:23:55;;;;;;;36.28;15.85;;;7.10;93.40;;;;;;5106855;28;20054;-54
2022/12/08 02:27:09;;;;;;;36.42;15.68;;;7.10;93.40;;;;;;5034584;28;20053;-55
2022/12/08 02:29:40;;;;;;;34.40;16.50;;;7.10;93.40;;;;;;5069485;28;20110;-55
2022/12/08 02:32:43;;;;;;;34.95;16.88;;;7.00;93.40;;;;;;5125275;28;20028;-54
2022/12/08 02:35:11;;;;;;;31.55;14.85;;;7.00;93.40;;;;;;5125411;28;20056;-55
2022/12/08 02:37:55;;;;;;;30.15;15.23;;;7.00;93.40;;;;;;5125664;28;20038;-54
2022/12/08 02:40:30;;;;;;;35.85;16.20;;;7.00;93.40;;;;;;5107098;28;20031;-55
2022/12/08 02:42:57;;;;;;;26.55;14.88;;;7.00;93.40;;;;;;5125217;28;20502;-55
2022/12/08 02:45:45;;;;;;;39.28;17.30;;;7.00;93.40;;;;;;5107121;28;20048;-55
2022/12/08 02:48:10;;;;;;;38.70;16.08;;;7.00;93.40;;;;;;5106709;28;20040;-55
2022/12/08 02:50:37;;;;;;;31.20;15.77;;;7.00;93.50;;;;;;5106708;28;20146;-55
2022/12/08 02:53:03;;;;;;;33.35;16.65;;;7.00;93.40;;;;;;5106671;28;20142;-55
2022/12/08 02:55:46;;;;;;;34.60;16.85;;;7.00;93.40;;;;;;5106657;28;20043;-55
2022/12/08 02:58:56;;;;;;;34.35;16.27;;;7.00;93.40;;;;;;5108931;28;20024;-55
2022/12/08 03:01:47;;;;;;;30.15;15.93;;;7.00;93.40;;;;;;5124838;28;20109;-55
2022/12/08 03:04:29;;;;;;;28.40;16.40;;;7.00;93.40;;;;;;5106221;28;20027;-55
2022/12/08 03:07:07;;;;;;;28.17;15.30;;;7.00;93.40;;;;;;5106843;28;20054;-55
2022/12/08 03:09:37;;;;;;;31.15;16.60;;;6.90;93.40;;;;;;5106964;28;20043;-55
2022/12/08 03:12:08;;;;;;;32.53;15.63;;;6.90;93.50;;;;;;5089524;28;20036;-55
2022/12/08 03:14:34;;;;;;;36.70;14.18;;;6.90;93.70;;;;;;5124869;28;20028;-54
2022/12/08 03:17:00;;;;;;;27.83;14.95;;;6.90;94.00;;;;;;5106393;28;20046;-55
2022/12/08 03:19:33;;;;;;;29.80;15.65;;;6.90;94.00;;;;;;5089635;28;20091;-55
2022/12/08 03:22:02;;;;;;;28.73;14.80;;;6.90;93.90;;;;;;5110089;28;20103;-55
2022/12/08 03:24:31;;;;;;;26.10;14.80;;;6.90;93.90;;;;;;5093258;28;20446;-55
2022/12/08 03:27:06;;;;;;;26.35;14.13;;;6.90;93.90;;;;;;5093550;28;20024;-54
2022/12/08 03:29:31;;;;;;;30.42;15.80;;;6.90;93.90;;;;;;5110087;28;20019;-54
2022/12/08 03:31:59;;;;;;;28.10;13.88;;;6.90;93.90;;;;;;5109863;28;20032;-55
2022/12/08 03:34:26;;;;;;;25.20;14.20;;;6.90;93.90;;;;;;5109876;28;20027;-54
2022/12/08 03:36:52;;;;;;;26.55;13.57;;;6.90;93.90;;;;;;5109818;28;20035;-54
2022/12/08 03:39:17;;;;;;;29.20;15.15;;;6.90;93.90;;;;;;5109875;28;20039;-54
2022/12/08 03:41:43;;;;;;;25.85;14.75;;;6.90;93.90;;;;;;5128055;28;20051;-55
2022/12/08 03:44:08;;;;;;;28.63;13.95;;;6.90;93.90;;;;;;5109444;28;20028;-55
2022/12/08 03:46:34;;;;;;;28.77;13.90;;;6.90;93.90;;;;;;5109486;28;20053;-55
2022/12/08 03:48:59;;;;;;;25.02;14.32;;;6.90;94.00;;;;;;5127847;28;20023;-55
2022/12/08 03:51:26;;;;;;;33.70;14.88;;;6.90;93.90;;;;;;5092485;28;20080;-55
2022/12/08 03:53:51;;;;;;;31.15;13.88;;;6.90;93.90;;;;;;5109667;28;20024;-55
2022/12/08 03:56:25;;;;;;;22.05;13.40;;;6.90;93.80;;;;;;5109465;28;20038;-55
2022/12/08 03:58:51;;;;;;;23.52;13.50;;;6.90;93.80;;;;;;5109368;28;20024;-55
2022/12/08 04:01:17;;;;;;;26.73;14.32;;;6.90;93.80;;;;;;5109237;28;20116;-55
2022/12/08 04:03:42;;;;;;;30.42;14.07;;;6.90;94.10;;;;;;5109303;28;20027;-55
2022/12/08 04:06:08;;;;;;;25.77;14.70;;;6.90;93.90;;;;;;5127617;28;20027;-54
2022/12/08 04:08:33;;;;;;;28.08;15.93;;;6.90;93.90;;;;;;5127705;28;20023;-55
2022/12/08 04:10:59;;;;;;;27.58;14.40;;;6.90;93.90;;;;;;5109121;28;20055;-55
2022/12/08 04:13:24;;;;;;;27.08;14.82;;;6.90;93.90;;;;;;5127549;28;20055;-55
2022/12/08 04:15:50;;;;;;;24.75;14.95;;;6.90;93.80;;;;;;5127575;28;20381;-54
2022/12/08 04:18:15;;;;;;;31.55;14.90;;;6.90;93.80;;;;;;5127240;28;20035;-55
2022/12/08 04:20:42;;;;;;;23.92;14.23;;;6.80;93.70;;;;;;5127231;28;20032;-55
2022/12/08 04:23:08;;;;;;;24.48;14.80;;;6.90;93.70;;;;;;5108897;28;20030;-55
2022/12/08 04:25:33;;;;;;;24.80;14.30;;;6.80;93.70;;;;;;5127122;28;20099;-55
2022/12/08 04:27:59;;;;;;;23.00;13.50;;;6.80;93.70;;;;;;5109030;28;20049;-54
2022/12/08 04:30:24;;;;;;;18.65;13.35;;;6.80;93.70;;;;;;5127282;28;20069;-55
2022/12/08 04:32:50;;;;;;;22.15;13.88;;;6.80;93.60;;;;;;5108017;28;20031;-55
2022/12/08 04:35:16;;;;;;;19.88;13.23;;;6.80;93.60;;;;;;5108759;28;20024;-54
2022/12/08 04:37:43;;;;;;;23.80;13.10;;;6.80;93.60;;;;;;5108532;28;20062;-55
2022/12/08 04:40:09;;;;;;;25.50;13.73;;;6.80;93.60;;;;;;5108955;28;20024;-55
2022/12/08 04:42:35;;;;;;;25.55;13.07;;;6.80;93.50;;;;;;5126963;28;20038;-55
2022/12/08 04:45:00;;;;;;;30.40;13.57;;;6.80;93.50;;;;;;5091740;28;20099;-55
2022/12/08 04:47:26;;;;;;;30.13;14.05;;;6.80;93.50;;;;;;5126733;28;20049;-55
2022/12/08 04:49:51;;;;;;;30.30;13.40;;;6.80;93.50;;;;;;5108589;28;20031;-55
2022/12/08 04:52:17;;;;;;;21.83;12.82;;;6.80;93.50;;;;;;5108418;28;20032;-55
2022/12/08 04:54:42;;;;;;;28.83;13.80;;;6.70;93.50;;;;;;5108306;28;20088;-55
2022/12/08 04:57:08;;;;;;;32.03;12.95;;;6.70;93.40;;;;;;5108275;28;20032;-55
2022/12/08 04:59:33;;;;;;;22.73;13.15;;;6.80;93.40;;;;;;5126612;28;20104;-55
2022/12/08 05:01:59;;;;;;;26.90;13.77;;;6.80;93.30;;;;;;5108101;28;20038;-55
2022/12/08 05:04:24;;;;;;;24.40;13.30;;;6.70;93.30;;;;;;5126225;28;20020;-55
2022/12/08 05:06:50;;;;;;;18.70;12.35;;;6.70;93.30;;;;;;5126534;28;20035;-55
2022/12/08 05:09:15;;;;;;;25.73;12.82;;;6.70;93.30;;;;;;5108118;28;20118;-55
2022/12/08 05:11:41;;;;;;;28.58;12.93;;;6.70;93.40;;;;;;5126359;28;20059;-55
2022/12/08 05:14:10;;;;;;;40.13;14.27;;;6.70;93.40;;;;;;5107971;28;20092;-55
2022/12/08 05:16:36;;;;;;;33.95;13.23;;;6.70;93.40;;;;;;5107996;28;20039;-55
2022/12/08 05:19:02;;;;;;;27.33;14.20;;;6.70;93.40;;;;;;5090721;28;20024;-55
2022/12/08 05:21:27;;;;;;;47.25;15.68;;;6.70;93.40;;;;;;5107925;28;20054;-54
2022/12/08 05:23:53;;;;;;;45.72;15.75;;;6.70;93.40;;;;;;5124388;28;20105;-55
2022/12/08 05:26:18;;;;;;;37.30;14.25;;;6.70;93.40;;;;;;5107632;28;20028;-55
2022/12/08 05:28:44;;;;;;;34.35;14.30;;;6.70;93.40;;;;;;5107533;28;20059;-55
2022/12/08 05:31:13;;;;;;;39.70;15.05;;;6.70;93.50;;;;;;5126378;28;20089;-55
2022/12/08 05:33:39;;;;;;;33.38;16.00;;;6.70;93.50;;;;;;5107500;28;20024;-55
2022/12/08 05:36:05;;;;;;;42.75;14.82;;;6.70;93.50;;;;;;5107254;28;20031;-55
2022/12/08 05:38:31;;;;;;;34.38;14.57;;;6.70;93.50;;;;;;5090637;28;20095;-54
2022/12/08 05:40:56;;;;;;;39.38;13.95;;;6.70;93.50;;;;;;5107907;28;20032;-55
2022/12/08 05:43:22;;;;;;;33.25;13.77;;;6.70;93.50;;;;;;5125696;28;20445;-55
2022/12/08 05:45:50;;;;;;;36.97;13.50;;;6.60;93.50;;;;;;5125937;28;20028;-55
2022/12/08 05:48:16;;;;;;;39.20;14.40;;;6.70;93.50;;;;;;5108042;28;20043;-55
2022/12/08 05:50:46;;;;;;;30.67;13.55;;;6.70;93.50;;;;;;5108219;28;20032;-55
2022/12/08 05:53:12;;;;;;;37.17;13.13;;;6.70;93.50;;;;;;5109814;28;20452;-55
2022/12/08 05:55:37;;;;;;;21.40;11.88;;;6.70;93.60;;;;;;5108008;28;20042;-55
2022/12/08 05:58:03;;;;;;;24.23;12.77;;;6.60;93.70;;;;;;5125755;28;20038;-55
2022/12/08 06:00:28;;;;;;;28.77;13.07;;;6.60;93.80;;;;;;5125688;28;20038;-55
2022/12/08 06:02:54;;;;;;;26.80;13.25;;;6.60;93.70;;;;;;5107283;28;20024;-53
2022/12/08 06:05:20;;;;;;;34.45;12.82;;;6.60;93.60;;;;;;5125218;28;20027;-54
2022/12/08 06:07:45;;;;;;;24.38;11.77;;;6.70;93.70;;;;;;5106913;28;20019;-55
2022/12/08 06:10:11;;;;;;;25.42;12.93;;;6.60;93.60;;;;;;5125087;28;20019;-55
2022/12/08 06:12:37;;;;;;;32.03;13.13;;;6.60;93.70;;;;;;5123545;28;20028;-55
2022/12/08 06:15:02;;;;;;;22.92;12.35;;;6.60;93.70;;;;;;5123746;28;20031;-55
2022/12/08 06:17:28;;;;;;;27.67;13.00;;;6.60;93.70;;;;;;5106867;28;20035;-55
2022/12/08 06:19:54;;;;;;;25.48;12.40;;;6.60;93.70;;;;;;5125275;28;20103;-54
2022/12/08 06:22:19;;;;;;;26.67;12.27;;;6.60;93.80;;;;;;5125241;28;20055;-54
2022/12/08 06:24:45;;;;;;;28.15;12.43;;;6.60;93.90;;;;;;5125005;28;20031;-55
2022/12/08 06:27:10;;;;;;;23.50;12.32;;;6.60;93.90;;;;;;5107127;28;20036;-54
2022/12/08 06:29:36;;;;;;;27.65;12.45;;;6.60;93.90;;;;;;5125089;28;20103;-55
2022/12/08 06:32:01;;;;;;;34.13;11.93;;;6.60;93.90;;;;;;5125430;28;20027;-55
2022/12/08 06:34:27;;;;;;;24.35;12.63;;;6.60;94.00;;;;;;5106515;28;20083;-55
2022/12/08 06:36:52;;;;;;;25.30;12.20;;;6.60;94.00;;;;;;5106778;28;20035;-55
2022/12/08 06:39:18;;;;;;;20.42;11.55;;;6.60;94.00;;;;;;5123643;28;20027;-54
2022/12/08 06:44:27;;;;;;;27.55;12.60;;;6.60;93.70;;;;;;5124792;28;20051;-55
2022/12/08 06:46:53;;;;;;;42.13;14.52;;;6.60;93.70;;;;;;5106361;28;20028;-55
2022/12/08 06:49:18;;;;;;;45.75;14.35;;;6.60;93.70;;;;;;5124902;28;20400;-55
2022/12/08 06:51:44;;;;;;;28.90;12.82;;;6.60;93.70;;;;;;5106484;28;20102;-55
2022/12/08 06:54:09;;;;;;;52.20;13.38;;;6.60;93.80;;;;;;5106660;28;20023;-55
2022/12/08 06:56:35;;;;;;;43.20;14.07;;;6.60;93.80;;;;;;5110387;28;20521;-55
2022/12/08 06:59:02;;;;;;;56.63;15.07;;;6.60;93.80;;;;;;5110340;28;20023;-55
2022/12/08 07:01:27;;;;;;;37.50;14.27;;;6.60;93.80;;;;;;5093378;28;20052;-54
2022/12/08 07:03:53;;;;;;;41.80;13.57;;;6.60;93.80;;;;;;5110345;28;20027;-54
2022/12/08 07:06:21;;;;;;;40.35;14.48;;;6.60;93.80;;;;;;5128635;28;20024;-55
2022/12/08 07:08:47;;;;;;;51.50;13.88;;;6.50;93.80;;;;;;5110324;28;20016;-55
2022/12/08 07:11:12;;;;;;;54.13;14.75;;;6.60;93.80;;;;;;5128694;28;20081;-55
2022/12/08 07:13:38;;;;;;;38.88;14.23;;;6.50;93.70;;;;;;5110066;28;20119;-55
2022/12/08 07:16:05;;;;;;;69.30;16.70;;;6.50;93.70;;;;;;5110033;28;20061;-55
2022/12/08 07:18:31;;;;;;;48.60;15.38;;;6.50;93.70;;;;;;5110285;28;20053;-54
2022/12/08 07:21:04;;;;;;;62.13;15.32;;;6.60;93.70;;;;;;5093022;28;20032;-55
2022/12/08 07:23:30;;;;;;;58.60;15.57;;;6.50;93.70;;;;;;5109977;28;20030;-55
2022/12/08 07:25:58;;;;;;;60.40;16.70;;;6.50;93.70;;;;;;5109884;28;20024;-55
2022/12/08 07:28:24;;;;;;;46.97;15.07;;;6.50;93.70;;;;;;5110314;28;20107;-55
2022/12/08 07:30:49;;;;;;;65.20;16.90;;;6.50;93.60;;;;;;5109757;28;20039;-55
2022/12/08 07:33:15;;;;;;;51.75;15.25;;;6.50;93.60;;;;;;5109836;28;20076;-55
2022/12/08 07:35:41;;;;;;;52.95;16.35;;;6.50;93.60;;;;;;5127934;28;20056;-54
2022/12/08 07:38:09;;;;;;;56.25;16.70;;;6.50;93.60;;;;;;5127949;28;20031;-55
2022/12/08 07:40:35;;;;;;;63.25;16.55;;;6.50;93.60;;;;;;5109833;28;20055;-55
2022/12/08 07:43:01;;;;;;;75.60;17.75;;;6.50;93.60;;;;;;5128080;28;20031;-54
2022/12/08 07:45:26;;;;;;;57.72;16.17;;;6.50;93.50;;;;;;5109255;28;20024;-55
2022/12/08 07:47:52;;;;;;;78.70;16.95;;;6.50;93.50;;;;;;5109202;28;20031;-54
2022/12/08 07:50:17;;;;;;;49.58;17.42;;;6.50;93.40;;;;;;5109524;28;20094;-54
2022/12/08 07:52:43;;;;;;;67.60;18.10;;;6.50;93.40;;;;;;5109611;28;20050;-54
2022/12/08 07:55:08;;;;;;;50.03;17.23;;;6.50;93.50;;;;;;5109517;28;20051;-55
2022/12/08 07:57:34;;;;;;;53.97;16.52;;;6.50;93.50;;;;;;5109277;28;20108;-55
2022/12/08 07:59:59;;;;;;;75.43;17.42;;;6.50;93.50;;;;;;5092290;28;20060;-54
2022/12/08 08:02:25;;;;;;;81.15;16.48;;;6.50;93.50;;;;;;5127649;28;20035;-54
2022/12/08 08:04:50;;;;;;;58.42;16.50;;;6.60;93.50;;;;;;5109477;28;20035;-55
2022/12/08 08:07:16;;;;;;;65.22;16.88;;;6.60;93.40;;;;;;5127736;28;20046;-54
2022/12/08 09:00:15;;;;;;;101.55;19.75;;;6.70;93.30;;;;;;5126213;28;20026;-57
2022/12/08 09:02:41;;;;;;;79.40;19.75;;;6.70;93.30;;;;;;5126302;28;20028;-56
2022/12/08 09:05:06;;;;;;;117.57;20.63;;;6.70;93.40;;;;;;5126108;28;20102;-57
2022/12/08 09:07:32;;;;;;;72.65;18.95;;;6.70;93.40;;;;;;5107714;28;20111;-56
2022/12/08 09:09:58;;;;;;;86.07;18.63;;;6.80;93.40;;;;;;5126123;28;20431;-57
2022/12/08 09:12:23;;;;;;;112.80;21.45;;;6.70;93.30;;;;;;5107871;28;20024;-57
2022/12/08 09:14:49;;;;;;;88.30;20.35;;;6.80;93.30;;;;;;5107782;28;20071;-56
2022/12/08 09:17:14;;;;;;;109.28;22.15;;;6.80;93.40;;;;;;5125263;28;20034;-56
2022/12/08 09:19:40;;;;;;;98.80;21.60;;;6.80;93.30;;;;;;5125774;28;20410;-57
2022/12/08 09:22:06;;;;;;;116.55;21.83;;;6.80;93.30;;;;;;5125572;28;20059;-56
2022/12/08 09:24:31;;;;;;;125.07;21.88;;;6.90;93.30;;;;;;5125537;28;20081;-57
2022/12/08 09:26:57;;;;;;;126.90;22.27;;;6.90;93.30;;;;;;5107526;28;20024;-57
2022/12/08 09:30:00;;;;;;;90.35;22.40;;;6.80;93.30;;;;;;5125988;28;20106;-57
2022/12/08 09:32:26;;;;;;;97.07;21.52;;;6.80;93.30;;;;;;5125934;28;20039;-56
2022/12/08 09:34:53;;;;;;;90.82;20.50;;;6.90;93.30;;;;;;5107271;28;20024;-57
2022/12/08 09:37:18;;;;;;;89.32;20.77;;;6.90;93.20;;;;;;5107364;28;20077;-57
2022/12/08 09:39:44;;;;;;;85.50;19.92;;;6.90;93.20;;;;;;5107533;28;20437;-57
2022/12/08 09:42:09;;;;;;;82.63;19.98;;;6.90;93.20;;;;;;5126243;28;20133;-57
2022/12/08 09:44:38;;;;;;;141.15;24.23;;;6.90;93.20;;;;;;5107031;28;20039;-56
2022/12/08 09:47:08;;;;;;;111.40;21.45;;;6.90;93.20;;;;;;5110134;28;20039;-57
2022/12/08 09:49:37;;;;;;;108.80;21.83;;;7.00;93.10;;;;;;5102429;28;20044;-56
2022/12/08 09:52:03;;;;;;;104.30;21.83;;;7.00;93.20;;;;;;5085070;28;20032;-55
2022/12/08 09:54:33;;;;;;;119.57;23.42;;;7.00;93.10;;;;;;5085780;28;20047;-57
2022/12/08 09:57:01;;;;;;;105.60;21.55;;;7.00;93.20;;;;;;5101676;28;20047;-57
2022/12/08 09:59:33;;;;;;;103.03;22.77;;;7.00;93.20;;;;;;5084800;28;20074;-57
2022/12/08 10:02:00;;;;;;;118.57;23.23;;;7.10;93.20;;;;;;5101245;28;20032;-57
2022/12/08 10:04:28;;;;;;;85.22;20.55;;;7.00;93.20;;;;;;5101071;28;20028;-57
2022/12/08 10:07:09;;;;;;;107.20;20.75;;;7.10;93.20;;;;;;5101226;28;20070;-56
2022/12/08 10:09:56;;;;;;;120.10;23.98;;;7.10;93.10;;;;;;5102672;28;20044;-57
2022/12/08 10:12:30;;;;;;;83.75;19.00;;;7.10;93.10;;;;;;5101402;28;20032;-57
2022/12/08 10:15:23;;;;;;;86.85;20.25;;;7.10;93.10;;;;;;5085270;28;20044;-57
2022/12/08 10:17:49;;;;;;;78.32;19.85;;;7.10;93.00;;;;;;5102484;28;20083;-57
2022/12/08 10:20:23;;;;;;;82.05;19.45;;;7.10;93.10;;;;;;5084457;28;20054;-57
2022/12/08 10:22:51;;;;;;;67.63;20.23;;;7.20;92.90;;;;;;5103937;28;20442;-57
2022/12/08 10:25:27;;;;;;;82.25;19.92;;;7.20;92.90;;;;;;5102926;28;20107;-56
2022/12/08 10:27:53;;;;;;;96.22;20.55;;;7.20;92.90;;;;;;5087356;28;20079;-56
2022/12/08 10:30:19;;;;;;;84.70;19.20;;;7.20;92.80;;;;;;5106389;28;20047;-56
2022/12/08 10:32:49;;;;;;;100.47;21.52;;;7.20;92.80;;;;;;5107237;28;20088;-57
2022/12/08 10:35:16;;;;;;;88.38;21.42;;;7.20;92.70;;;;;;5090964;28;20107;-56
2022/12/08 10:37:57;;;;;;;142.55;26.17;;;7.20;92.70;;;;;;5090492;28;20083;-57
2022/12/08 10:40:22;;;;;;;95.50;21.40;;;7.20;92.70;;;;;;5091137;28;20111;-56
2022/12/08 10:42:50;;;;;;;92.93;21.17;;;7.30;92.70;;;;;;5073499;28;20027;-57
2022/12/08 10:45:31;;;;;;;98.53;21.52;;;7.30;92.70;;;;;;5090070;28;20099;-57
2022/12/08 10:48:05;;;;;;;105.60;21.35;;;7.30;92.70;;;;;;5091525;28;20024;-57
2022/12/08 10:50:51;;;;;;;86.45;20.67;;;7.30;92.70;;;;;;5107171;28;20082;-57
2022/12/08 10:53:25;;;;;;;80.35;18.95;;;7.30;92.70;;;;;;5090932;28;20063;-57
2022/12/08 10:56:13;;;;;;;80.10;20.88;;;7.30;92.60;;;;;;5090754;28;20060;-57
2022/12/08 10:58:40;;;;;;;112.05;21.35;;;7.30;92.60;;;;;;5106895;28;20024;-57
2022/12/08 11:01:13;;;;;;;100.75;21.67;;;7.40;92.60;;;;;;5107036;28;20040;-57
2022/12/08 11:03:46;;;;;;;120.45;22.48;;;7.40;92.60;;;;;;5089933;28;20032;-57
2022/12/08 11:06:24;;;;;;;93.82;19.50;;;7.40;92.60;;;;;;5106619;28;20059;-57
2022/12/08 11:08:57;;;;;;;80.65;19.77;;;7.40;92.60;;;;;;5090835;28;20058;-56
2022/12/08 11:11:56;;;;;;;102.47;21.88;;;7.40;92.50;;;;;;5089935;28;20074;-57
2022/12/08 11:14:26;;;;;;;108.00;22.98;;;7.50;92.50;;;;;;5108233;28;20039;-57
2022/12/08 11:16:53;;;;;;;125.78;23.73;;;7.50;92.50;;;;;;5106285;28;20069;-56
2022/12/08 11:19:19;;;;;;;151.27;26.48;;;7.50;92.50;;;;;;5089688;28;20442;-56
2022/12/08 11:21:45;;;;;;;110.05;22.60;;;7.50;92.50;;;;;;5089126;28;20106;-57
2022/12/08 11:24:16;;;;;;;110.47;21.48;;;7.60;92.50;;;;;;5106040;28;20043;-56
2022/12/08 11:27:16;;;;;;;107.35;22.10;;;7.60;92.50;;;;;;5107247;28;20040;-57
2022/12/08 11:29:41;;;;;;;109.85;21.38;;;7.60;92.50;;;;;;5072865;28;20169;-57
2022/12/08 11:32:11;;;;;;;124.70;22.95;;;7.60;92.40;;;;;;5105897;28;20179;-57
2022/12/08 11:34:49;;;;;;;103.00;23.58;;;7.60;92.40;;;;;;5089114;28;20058;-57
2022/12/08 11:37:37;;;;;;;111.78;22.35;;;7.70;92.40;;;;;;5090080;28;20163;-57
2022/12/08 11:40:09;;;;;;;105.72;21.55;;;7.70;92.40;;;;;;5105369;28;20036;-57
2022/12/08 11:42:37;;;;;;;108.30;22.42;;;7.70;92.30;;;;;;5089255;28;20032;-57
2022/12/08 11:45:06;;;;;;;112.50;22.58;;;7.80;92.20;;;;;;5088950;28;20035;-57
2022/12/08 11:48:01;;;;;;;118.82;22.83;;;7.80;92.10;;;;;;5088992;28;20054;-57
2022/12/08 11:50:42;;;;;;;115.05;20.67;;;7.80;92.10;;;;;;5099926;28;20082;-57
2022/12/08 11:53:40;;;;;;;92.53;20.00;;;7.80;92.10;;;;;;5089105;28;20036;-56
2022/12/08 11:56:32;;;;;;;86.68;19.77;;;7.90;92.10;;;;;;5105876;28;20057;-57
2022/12/08 11:59:11;;;;;;;104.38;19.25;;;7.90;92.00;;;;;;5099170;28;20028;-57
2022/12/08 12:01:37;;;;;;;103.35;21.67;;;7.90;91.90;;;;;;5089458;28;20098;-57
2022/12/08 12:04:05;;;;;;;128.75;22.13;;;7.90;91.80;;;;;;5106894;28;20032;-57
2022/12/08 12:06:44;;;;;;;115.93;20.40;;;7.90;91.70;;;;;;5106972;28;20047;-56
2022/12/08 12:09:15;;;;;;;118.40;20.88;;;8.00;91.60;;;;;;5107221;28;20544;-57
2022/12/08 12:12:18;;;;;;;102.65;20.40;;;8.00;91.60;;;;;;5106122;28;20042;-56
2022/12/08 12:15:14;;;;;;;117.22;21.25;;;8.00;91.60;;;;;;5090103;28;20047;-57
2022/12/08 12:17:46;;;;;;;102.22;20.00;;;8.10;91.60;;;;;;5105200;28;20032;-57
2022/12/08 12:20:31;;;;;;;112.43;22.15;;;8.10;91.50;;;;;;5088780;28;20480;-57
2022/12/08 12:23:00;;;;;;;99.15;18.58;;;8.10;91.50;;;;;;5106548;28;20036;-57
2022/12/08 12:25:26;;;;;;;102.78;18.83;;;8.10;91.30;;;;;;5088129;28;20032;-57
2022/12/08 12:27:52;;;;;;;105.97;18.17;;;8.10;91.30;;;;;;5088455;28;20020;-57
2022/12/08 12:30:28;;;;;;;113.40;19.40;;;8.20;91.30;;;;;;5105079;28;20028;-56
2022/12/08 12:32:57;;;;;;;91.50;19.10;;;8.20;91.20;;;;;;5089780;28;20020;-54
2022/12/08 12:35:35;;;;;;;83.47;17.63;;;8.20;91.10;;;;;;5088369;28;20024;-54
2022/12/08 12:38:59;;;;;;;93.32;18.25;;;8.20;91.00;;;;;;5089272;28;20028;-54
2022/12/08 12:40:56;;;;;;;86.88;17.42;;;8.20;90.80;;;;;;5105149;28;20426;-55
2022/12/08 12:43:28;;;;;;;82.63;17.00;;;8.30;90.80;;;;;;5088719;28;20476;-55
2022/12/08 12:46:23;;;;;;;67.50;16.23;;;8.30;90.70;;;;;;5105123;28;20040;-54
2022/12/08 12:48:49;;;;;;;91.88;17.92;;;8.30;90.60;;;;;;5105001;28;20108;-55
2022/12/08 12:51:36;;;;;;;80.03;17.58;;;8.30;90.60;;;;;;5106099;28;20028;-55
2022/12/08 12:54:21;;;;;;;74.80;16.55;;;8.30;90.50;;;;;;5105755;28;20027;-55
2022/12/08 12:56:48;;;;;;;72.18;15.98;;;8.40;90.40;;;;;;5106243;28;20442;-55
2022/12/08 12:59:33;;;;;;;89.15;16.08;;;8.40;90.30;;;;;;5088275;28;20039;-55
2022/12/08 13:01:59;;;;;;;112.50;17.17;;;8.40;90.30;;;;;;5104374;28;20055;-55
2022/12/08 13:04:34;;;;;;;87.13;18.05;;;8.40;90.20;;;;;;5087283;28;20032;-54
2022/12/08 13:07:00;;;;;;;58.10;15.77;;;8.40;90.10;;;;;;5087879;28;20036;-55
2022/12/08 13:09:27;;;;;;;82.40;15.50;;;8.50;90.10;;;;;;5104772;28;20020;-55
2022/12/08 13:11:55;;;;;;;57.78;15.90;;;8.50;90.10;;;;;;5104448;28;20183;-55
2022/12/08 13:14:34;;;;;;;58.15;15.75;;;8.50;90.10;;;;;;5087817;28;20097;-54
2022/12/08 13:17:00;;;;;;;58.80;15.68;;;8.50;90.10;;;;;;5104210;28;20047;-55
2022/12/08 13:19:29;;;;;;;73.05;16.60;;;8.50;90.10;;;;;;5103709;28;20035;-55
2022/12/08 13:21:54;;;;;;;77.25;16.80;;;8.50;90.00;;;;;;5104240;28;20121;-55
2022/12/08 13:24:23;;;;;;;65.63;14.90;;;8.60;90.00;;;;;;5087367;28;20059;-54
2022/12/08 13:26:49;;;;;;;67.95;15.20;;;8.60;90.10;;;;;;5105286;28;20053;-54
2022/12/08 13:29:22;;;;;;;103.05;16.55;;;8.60;90.10;;;;;;5105566;28;20046;-54
2022/12/08 13:32:01;;;;;;;76.13;16.65;;;8.60;90.10;;;;;;5103902;28;20473;-55
2022/12/08 13:34:34;;;;;;;80.97;17.23;;;8.60;90.10;;;;;;5086989;28;20036;-55
2022/12/08 13:37:10;;;;;;;56.45;15.35;;;8.70;90.10;;;;;;5103895;28;20060;-55
2022/12/08 13:39:36;;;;;;;90.72;17.52;;;8.70;90.00;;;;;;5103815;28;20079;-55
2022/12/08 13:42:18;;;;;;;86.75;16.48;;;8.70;90.00;;;;;;5104990;28;20095;-54
2022/12/08 13:45:04;;;;;;;72.85;17.30;;;8.70;90.00;;;;;;5103310;28;20092;-55
2022/12/08 13:47:34;;;;;;;75.28;15.23;;;8.70;90.00;;;;;;5103213;28;20043;-54
2022/12/08 13:50:02;;;;;;;84.80;17.70;;;8.80;90.00;;;;;;5086641;28;20115;-55